Terminal Aerodrome Forecast
Issued by NWS

Home | Current Version | Previous Version | Text Only | Print | Product List | Glossary On
Versions: 1 2 3 4 5 6 7 8 9 10 11 12 13 14 15 16 17 18
000
FTUS42 KFFC 231740
TAFRYY
TAF
KRYY 231740Z 2318/2418 21009G18KT P6SM SCT040
      TEMPO 2400/2403 VRB15G25KT 5SM TSRA BKN035CB
     FM240600 24008KT 6SM SHRA BKN006
     FM241400 26006KT P6SM VCSH BKN010
     FM241700 27006KT P6SM VCSH OVC030=

USA.gov is the U.S. government's official web portal to all federal, state and local government web resources and services.